createdAt,value
2023-03-24T00:02:07.079Z,2.37
2023-03-24T00:04:35.402Z,2.30
2023-03-24T00:07:03.354Z,2.00
2023-03-24T00:09:30.942Z,2.17
2023-03-24T00:11:58.169Z,4.30
2023-03-24T00:14:26.019Z,3.20
2023-03-24T00:16:54.666Z,3.17
2023-03-24T00:19:23.021Z,2.17
2023-03-24T00:21:49.822Z,2.30
2023-03-24T00:24:16.691Z,2.30
2023-03-24T00:26:43.478Z,2.20
2023-03-24T00:29:11.826Z,2.10
2023-03-24T00:31:40.140Z,2.17
2023-03-24T00:34:09.701Z,2.00
2023-03-24T00:36:37.215Z,2.20
2023-03-24T00:39:06.560Z,2.30
2023-03-24T00:41:33.705Z,2.10
2023-03-24T00:44:03.736Z,1.93
2023-03-24T00:46:31.100Z,2.00
2023-03-24T00:49:03.898Z,2.30
2023-03-24T00:51:35.818Z,1.97
2023-03-24T00:54:03.435Z,2.40
2023-03-24T00:56:33.616Z,2.03
2023-03-24T00:59:02.312Z,2.07
2023-03-24T01:01:36.516Z,2.40
2023-03-24T01:04:06.758Z,2.27
2023-03-24T01:06:36.990Z,2.93
2023-03-24T01:09:05.840Z,3.23
2023-03-24T01:11:38.565Z,3.37
2023-03-24T01:14:06.377Z,3.80
2023-03-24T01:16:33.358Z,4.37
2023-03-24T01:19:00.843Z,4.40
2023-03-24T01:21:27.676Z,4.50
2023-03-24T01:23:55.911Z,4.80
2023-03-24T01:26:22.815Z,4.10
2023-03-24T01:28:49.989Z,4.10
2023-03-24T01:31:17.111Z,4.00
2023-03-24T01:33:44.115Z,3.53
2023-03-24T01:36:11.453Z,3.67
2023-03-24T01:38:38.900Z,2.70
2023-03-24T01:41:07.809Z,3.10
2023-03-24T01:43:36.263Z,2.60
2023-03-24T01:46:12.876Z,2.73
2023-03-24T01:48:44.193Z,3.07
2023-03-24T01:51:16.408Z,3.23
2023-03-24T01:53:48.563Z,2.97
2023-03-24T01:56:16.844Z,3.43
2023-03-24T01:58:49.056Z,3.10
2023-03-24T02:01:17.535Z,3.43
2023-03-24T02:03:46.497Z,3.30
2023-03-24T02:06:14.677Z,3.80
2023-03-24T02:08:46.709Z,3.80
2023-03-24T02:11:13.721Z,3.80
2023-03-24T02:13:42.137Z,3.63
2023-03-24T02:16:21.818Z,3.57
2023-03-24T02:18:58.353Z,4.00
2023-03-24T02:21:47.057Z,3.97
2023-03-24T02:24:45.631Z,3.90
2023-03-24T02:27:30.069Z,3.67
2023-03-24T02:30:25.487Z,4.27
2023-03-24T02:33:28.220Z,4.03
2023-03-24T02:36:33.121Z,4.20
2023-03-24T02:39:43.402Z,5.00
2023-03-24T02:42:21.259Z,5.57
2023-03-24T02:44:55.548Z,5.10
2023-03-24T02:47:29.227Z,5.27
2023-03-24T02:50:04.722Z,5.83
2023-03-24T02:52:39.231Z,4.73
2023-03-24T02:55:14.702Z,4.23
2023-03-24T02:57:44.849Z,5.10
2023-03-24T03:00:20.149Z,4.60
2023-03-24T03:02:53.988Z,4.60
2023-03-24T03:05:25.492Z,3.93
2023-03-24T03:07:56.873Z,3.70
2023-03-24T03:10:30.739Z,4.90
2023-03-24T03:13:01.481Z,3.67
2023-03-24T03:15:32.849Z,3.90
2023-03-24T03:18:11.394Z,3.70
2023-03-24T03:20:43.070Z,3.30
2023-03-24T03:23:14.535Z,3.80
2023-03-24T03:25:50.607Z,3.47
2023-03-24T03:28:21.888Z,4.03
2023-03-24T03:30:53.553Z,4.17
2023-03-24T03:33:27.661Z,4.30
2023-03-24T03:35:58.958Z,4.00
2023-03-24T03:38:31.365Z,4.33
2023-03-24T03:41:02.659Z,4.73
2023-03-24T03:43:31.364Z,4.33
2023-03-24T03:45:58.937Z,4.10
2023-03-24T03:48:26.648Z,3.83
2023-03-24T03:51:06.296Z,4.17
2023-03-24T03:53:45.409Z,4.20
2023-03-24T03:56:18.441Z,3.87
2023-03-24T03:58:47.193Z,3.83
2023-03-24T04:01:19.030Z,3.70
2023-03-24T04:04:02.439Z,3.70
2023-03-24T04:06:37.551Z,4.20
2023-03-24T04:09:16.519Z,4.60
2023-03-24T04:12:09.323Z,4.93
2023-03-24T04:15:01.920Z,5.60
2023-03-24T04:17:46.097Z,5.90
2023-03-24T04:20:17.614Z,5.93
2023-03-24T04:22:58.991Z,5.90
2023-03-24T04:25:35.085Z,5.03
2023-03-24T04:28:11.936Z,4.93
2023-03-24T04:30:43.284Z,4.50
2023-03-24T04:33:17.903Z,4.10
2023-03-24T04:35:49.690Z,4.27
2023-03-24T04:38:23.102Z,3.87
2023-03-24T04:40:55.841Z,4.83
2023-03-24T04:43:27.921Z,3.37
2023-03-24T04:45:57.885Z,3.97
2023-03-24T04:48:26.098Z,4.00
2023-03-24T04:50:56.157Z,3.93
2023-03-24T04:53:23.319Z,3.30
2023-03-24T04:56:00.546Z,3.70
2023-03-24T04:58:29.535Z,4.47
2023-03-24T05:00:56.785Z,3.70
2023-03-24T05:03:23.620Z,4.20
2023-03-24T05:05:51.141Z,3.90
2023-03-24T05:08:19.856Z,3.77
2023-03-24T05:10:46.709Z,3.73
2023-03-24T05:13:13.731Z,4.00
2023-03-24T05:15:42.917Z,3.50
2023-03-24T05:18:10.516Z,3.90
2023-03-24T05:20:37.468Z,3.60
2023-03-24T05:23:05.815Z,3.67
2023-03-24T05:25:32.909Z,3.67
2023-03-24T05:28:00.166Z,3.57
2023-03-24T05:30:27.080Z,3.23
2023-03-24T05:32:55.728Z,3.70
2023-03-24T05:35:23.017Z,4.20
2023-03-24T05:37:50.295Z,4.23
2023-03-24T05:40:17.305Z,4.07
2023-03-24T05:42:44.467Z,4.00
2023-03-24T05:45:11.870Z,4.17
2023-03-24T05:47:39.063Z,4.53
2023-03-24T05:50:08.150Z,4.23
2023-03-24T05:52:36.276Z,4.27
2023-03-24T05:55:03.308Z,4.30
2023-03-24T05:57:30.738Z,4.03
2023-03-24T05:59:57.607Z,4.23
2023-03-24T06:02:25.492Z,4.30
2023-03-24T06:04:52.973Z,4.17
2023-03-24T06:07:22.429Z,4.20
2023-03-24T06:09:50.744Z,3.77
2023-03-24T06:12:18.047Z,4.10
2023-03-24T06:14:45.509Z,4.40
2023-03-24T06:17:15.503Z,4.70
2023-03-24T06:19:49.777Z,4.43
2023-03-24T06:22:18.111Z,5.27
2023-03-24T06:24:47.075Z,4.90
2023-03-24T06:27:14.620Z,5.00
2023-03-24T06:29:44.750Z,5.37
2023-03-24T06:32:11.923Z,4.67
2023-03-24T06:34:40.398Z,4.73
2023-03-24T06:37:07.541Z,5.00
2023-03-24T06:39:34.392Z,5.17
2023-03-24T06:42:02.804Z,5.50
2023-03-24T06:44:29.659Z,5.13
2023-03-24T06:46:56.838Z,4.93
2023-03-24T06:49:23.828Z,4.63
2023-03-24T06:51:51.114Z,6.47
2023-03-24T06:54:18.126Z,5.53
2023-03-24T06:56:45.036Z,5.37
2023-03-24T06:59:13.272Z,5.27
2023-03-24T07:01:40.465Z,5.53
2023-03-24T07:04:07.687Z,6.60
2023-03-24T07:06:43.171Z,9.43
2023-03-24T07:09:14.136Z,10.60
2023-03-24T07:11:41.693Z,11.30
2023-03-24T07:14:08.516Z,7.87
2023-03-24T07:16:36.945Z,7.70
2023-03-24T07:19:04.123Z,7.13
2023-03-24T07:21:31.096Z,5.53
2023-03-24T07:23:57.958Z,5.30
2023-03-24T07:26:24.801Z,5.07
2023-03-24T07:28:52.024Z,4.97
2023-03-24T07:31:19.151Z,4.13
2023-03-24T07:33:47.739Z,4.60
2023-03-24T07:36:14.908Z,4.57
2023-03-24T07:38:41.696Z,4.23
2023-03-24T07:41:08.803Z,4.10
2023-03-24T07:43:35.654Z,4.10
2023-03-24T07:46:02.908Z,4.20
2023-03-24T07:48:29.959Z,4.23
2023-03-24T07:50:58.511Z,4.07
2023-03-24T07:53:25.412Z,3.57
2023-03-24T07:55:52.430Z,2.87
2023-03-24T07:58:19.880Z,3.27
2023-03-24T08:00:47.439Z,2.93
2023-03-24T08:03:15.608Z,3.00
2023-03-24T08:05:44.174Z,2.73
2023-03-24T08:08:12.724Z,2.50
2023-03-24T08:10:39.827Z,2.30
2023-03-24T08:13:06.674Z,2.30
2023-03-24T08:15:33.887Z,2.53
2023-03-24T08:18:00.861Z,2.60
2023-03-24T08:20:29.862Z,2.60
2023-03-24T08:22:56.837Z,2.80
2023-03-24T08:25:26.780Z,2.73
2023-03-24T08:27:54.701Z,2.70
2023-03-24T08:30:23.523Z,2.60
2023-03-24T08:32:52.685Z,3.10
2023-03-24T08:35:23.113Z,3.37
2023-03-24T08:37:50.414Z,3.00
2023-03-24T08:40:23.578Z,2.60
2023-03-24T08:42:54.176Z,2.40
2023-03-24T08:45:23.711Z,2.17
2023-03-24T08:47:52.124Z,2.40
2023-03-24T08:50:21.087Z,2.37
2023-03-24T08:52:48.164Z,2.40
2023-03-24T08:55:15.533Z,2.43
2023-03-24T08:57:42.404Z,2.03
2023-03-24T09:00:15.440Z,2.00
2023-03-24T09:02:43.144Z,1.50
2023-03-24T09:05:10.159Z,1.60
2023-03-24T09:07:37.073Z,1.63
2023-03-24T09:10:04.930Z,1.50
2023-03-24T09:12:31.916Z,1.60
2023-03-24T09:14:58.718Z,1.20
2023-03-24T09:17:27.082Z,1.20
2023-03-24T09:19:54.153Z,1.50
2023-03-24T09:22:21.316Z,1.17
2023-03-24T09:24:49.167Z,1.20
2023-03-24T09:27:16.465Z,1.10
2023-03-24T09:29:43.583Z,0.90
2023-03-24T09:32:10.769Z,1.00
2023-03-24T09:34:38.836Z,1.20
2023-03-24T09:37:05.897Z,1.00
2023-03-24T09:39:35.621Z,1.13
2023-03-24T09:42:04.169Z,1.20
2023-03-24T09:44:36.807Z,1.40
2023-03-24T09:47:11.563Z,1.47
2023-03-24T09:49:42.061Z,1.30
2023-03-24T09:52:12.614Z,1.10
2023-03-24T09:54:47.800Z,1.20
2023-03-24T09:57:20.944Z,1.50
2023-03-24T09:59:47.820Z,1.97
2023-03-24T10:02:18.536Z,1.30
2023-03-24T10:04:47.299Z,1.60
2023-03-24T10:07:22.568Z,1.60
2023-03-24T10:09:56.497Z,2.07
2023-03-24T10:12:34.899Z,1.57
2023-03-24T10:15:30.877Z,1.40
2023-03-24T10:18:16.831Z,1.73
2023-03-24T10:20:51.589Z,1.47
2023-03-24T10:23:27.346Z,1.90
2023-03-24T10:26:00.487Z,1.90
2023-03-24T10:28:32.651Z,1.70
2023-03-24T10:31:05.108Z,1.53
2023-03-24T10:33:35.302Z,2.00
2023-03-24T10:36:08.286Z,1.40
2023-03-24T10:38:36.307Z,2.20
2023-03-24T10:41:04.182Z,2.20
2023-03-24T10:43:31.464Z,1.70
2023-03-24T10:45:59.927Z,2.30
2023-03-24T10:48:43.490Z,1.80
2023-03-24T10:51:16.551Z,1.77
2023-03-24T10:53:47.712Z,2.30
2023-03-24T10:56:17.434Z,2.20
2023-03-24T10:58:45.946Z,3.47
2023-03-24T11:01:27.422Z,2.40
2023-03-24T11:04:00.746Z,2.13
2023-03-24T11:06:29.248Z,2.10
2023-03-24T11:09:21.225Z,2.20
2023-03-24T11:11:50.731Z,2.07
2023-03-24T11:14:24.624Z,2.57
2023-03-24T11:16:52.520Z,2.83
2023-03-24T11:19:22.464Z,3.27
2023-03-24T11:21:57.736Z,2.67
2023-03-24T11:24:25.716Z,2.50
2023-03-24T11:27:00.120Z,2.77
2023-03-24T11:29:30.714Z,2.90
2023-03-24T11:31:59.744Z,2.40
2023-03-24T11:34:34.124Z,2.60
2023-03-24T11:37:04.924Z,2.60
2023-03-24T11:39:34.507Z,2.97
2023-03-24T11:42:14.412Z,2.57
2023-03-24T11:44:48.822Z,2.60
2023-03-24T11:47:21.959Z,2.63
2023-03-24T11:49:52.514Z,2.40
2023-03-24T11:52:27.074Z,2.20
2023-03-24T11:54:54.604Z,2.22
2023-03-24T11:57:36.009Z,2.33
2023-03-24T12:00:10.074Z,2.72
2023-03-24T12:02:49.940Z,2.10
2023-03-24T12:05:31.119Z,2.30
2023-03-24T12:08:27.121Z,2.47
2023-03-24T12:11:06.890Z,2.73
2023-03-24T12:13:36.460Z,2.40
2023-03-24T12:16:26.514Z,2.70
2023-03-24T12:19:24.469Z,2.22
2023-03-24T12:22:04.231Z,2.20
2023-03-24T12:24:47.212Z,1.98
2023-03-24T12:27:25.577Z,2.08
2023-03-24T12:30:00.904Z,1.45
2023-03-24T12:32:45.856Z,2.22
2023-03-24T12:35:41.511Z,1.90
2023-03-24T12:38:24.913Z,1.65
2023-03-24T12:41:19.803Z,1.92
2023-03-24T12:43:56.055Z,2.17
2023-03-24T12:46:46.726Z,1.98
2023-03-24T12:49:51.269Z,2.35
2023-03-24T12:52:42.111Z,2.33
2023-03-24T12:55:14.524Z,2.53
2023-03-24T12:57:48.295Z,2.67
2023-03-24T13:00:22.137Z,2.20
2023-03-24T13:02:53.690Z,2.40
2023-03-24T13:05:27.407Z,2.40
2023-03-24T13:07:59.167Z,2.73
2023-03-24T13:10:27.927Z,2.50
2023-03-24T13:13:01.813Z,2.80
2023-03-24T13:15:33.446Z,2.97
2023-03-24T13:18:10.725Z,3.10
2023-03-24T13:20:42.533Z,3.63
2023-03-24T13:23:27.633Z,2.90
2023-03-24T13:26:02.859Z,2.90
2023-03-24T13:28:38.705Z,2.90
2023-03-24T13:31:09.387Z,2.87
2023-03-24T13:33:39.030Z,2.97
2023-03-24T13:36:22.447Z,3.13
2023-03-24T13:38:52.262Z,3.00
2023-03-24T13:41:20.979Z,2.63
2023-03-24T13:43:51.890Z,2.57
2023-03-24T13:46:19.879Z,3.03
2023-03-24T13:48:51.949Z,3.72
2023-03-24T13:51:24.547Z,3.20
2023-03-24T13:53:54.485Z,3.28
2023-03-24T13:56:26.160Z,2.45
2023-03-24T13:59:11.332Z,3.10
2023-03-24T14:01:39.653Z,3.55
2023-03-24T14:04:27.805Z,6.00
2023-03-24T14:06:55.927Z,5.73
2023-03-24T14:09:24.740Z,3.97
2023-03-24T14:12:19.359Z,3.03
2023-03-24T14:15:19.730Z,7.67
2023-03-24T14:17:49.070Z,4.67
2023-03-24T14:20:29.063Z,3.03
2023-03-24T14:22:56.842Z,3.37
2023-03-24T14:25:27.147Z,2.40
2023-03-24T14:28:06.607Z,2.73
2023-03-24T14:30:38.059Z,2.70
2023-03-24T14:33:05.598Z,2.80
2023-03-24T14:35:35.870Z,2.67
2023-03-24T14:38:05.980Z,2.90
2023-03-24T14:40:38.734Z,2.67
2023-03-24T14:43:17.727Z,2.60
2023-03-24T14:46:06.362Z,2.90
2023-03-24T14:48:38.157Z,2.40
2023-03-24T14:51:36.621Z,2.17
2023-03-24T14:54:07.249Z,2.73
2023-03-24T14:56:39.956Z,2.57
2023-03-24T14:59:16.860Z,2.90
2023-03-24T15:01:48.976Z,2.90
2023-03-24T15:04:16.183Z,2.80
2023-03-24T15:06:44.917Z,3.03
2023-03-24T15:09:11.806Z,3.13
2023-03-24T15:11:40.817Z,3.40
2023-03-24T15:14:19.252Z,3.07
2023-03-24T15:16:54.626Z,2.63
2023-03-24T15:19:22.948Z,2.80
2023-03-24T15:21:51.991Z,3.00
2023-03-24T15:24:27.823Z,2.80
2023-03-24T15:27:10.747Z,2.77
2023-03-24T15:29:39.522Z,3.00
2023-03-24T15:32:15.678Z,2.73
2023-03-24T15:34:47.211Z,5.10
2023-03-24T15:37:21.835Z,5.30
2023-03-24T15:39:51.215Z,3.97
2023-03-24T15:42:22.704Z,12.17
2023-03-24T15:44:51.140Z,3.13
2023-03-24T15:47:23.263Z,3.47
2023-03-24T15:49:52.678Z,2.97
2023-03-24T15:52:31.301Z,2.90
2023-03-24T15:55:01.436Z,3.10
2023-03-24T15:57:29.377Z,2.70
2023-03-24T16:00:11.981Z,3.23
2023-03-24T16:02:43.843Z,2.70
2023-03-24T16:05:17.540Z,2.90
2023-03-24T16:07:44.635Z,2.03
2023-03-24T16:10:28.998Z,2.73
2023-03-24T16:12:56.407Z,2.37
2023-03-24T16:15:23.371Z,2.03
2023-03-24T16:17:53.328Z,1.90
2023-03-24T16:20:21.771Z,2.30
2023-03-24T16:22:48.766Z,2.27
2023-03-24T16:25:16.272Z,2.07
2023-03-24T16:27:43.487Z,2.07
2023-03-24T16:30:19.346Z,2.00
2023-03-24T16:32:46.364Z,2.10
2023-03-24T16:35:14.701Z,2.57
2023-03-24T16:37:42.781Z,2.20
2023-03-24T16:40:21.255Z,2.40
2023-03-24T16:42:48.683Z,2.50
2023-03-24T16:45:16.557Z,2.20
2023-03-24T16:47:43.804Z,2.17
2023-03-24T16:50:37.070Z,2.30
2023-03-24T16:53:05.776Z,2.90
2023-03-24T16:55:33.099Z,2.33
2023-03-24T16:58:01.396Z,2.67
2023-03-24T17:00:29.861Z,2.50
2023-03-24T17:02:59.895Z,2.00
2023-03-24T17:05:29.937Z,2.37
2023-03-24T17:07:58.540Z,2.20
2023-03-24T17:10:27.328Z,2.00
2023-03-24T17:12:55.867Z,2.63
2023-03-24T17:15:25.852Z,2.10
2023-03-24T17:17:53.321Z,3.03
2023-03-24T17:20:24.590Z,2.90
2023-03-24T17:22:54.264Z,1.90
2023-03-24T17:25:24.383Z,3.40
2023-03-24T17:27:53.536Z,1.20
2023-03-24T17:30:22.103Z,1.10
2023-03-24T17:32:49.274Z,1.97
2023-03-24T17:35:18.436Z,1.10
2023-03-24T17:37:47.898Z,1.17
2023-03-24T17:40:27.714Z,1.07
2023-03-24T17:42:54.855Z,1.07
2023-03-24T17:45:21.949Z,1.10
2023-03-24T17:47:49.159Z,1.47
2023-03-24T17:50:16.364Z,1.30
2023-03-24T17:52:51.610Z,1.50
2023-03-24T17:55:19.886Z,1.53
2023-03-24T17:57:48.222Z,1.33
2023-03-24T18:00:20.495Z,1.50
2023-03-24T18:02:47.398Z,1.10
2023-03-24T18:05:15.776Z,1.60
2023-03-24T18:07:42.654Z,1.37
2023-03-24T18:10:10.409Z,1.90
2023-03-24T18:12:37.377Z,1.30
2023-03-24T18:15:07.593Z,1.40
2023-03-24T18:17:34.580Z,1.70
2023-03-24T18:20:10.336Z,1.70
2023-03-24T18:22:37.888Z,1.53
2023-03-24T18:25:05.232Z,1.57
2023-03-24T18:27:32.775Z,1.40
2023-03-24T18:29:59.851Z,1.53
2023-03-24T18:32:28.298Z,1.53
2023-03-24T18:35:00.716Z,1.70
2023-03-24T18:37:27.967Z,1.80
2023-03-24T18:39:56.373Z,1.50
2023-03-24T18:42:23.177Z,1.47
2023-03-24T18:44:50.564Z,2.57
2023-03-24T18:47:17.697Z,4.97
2023-03-24T18:49:45.965Z,3.53
2023-03-24T18:52:14.811Z,3.30
2023-03-24T18:54:41.637Z,3.43
2023-03-24T18:57:08.949Z,3.90
2023-03-24T18:59:36.462Z,2.87
2023-03-24T19:02:03.323Z,3.00
2023-03-24T19:04:31.188Z,3.10
2023-03-24T19:07:00.550Z,3.13
2023-03-24T19:09:29.177Z,2.80
2023-03-24T19:11:56.121Z,3.10
2023-03-24T19:14:28.867Z,2.67
2023-03-24T19:16:57.369Z,3.40
2023-03-24T19:19:24.880Z,3.13
2023-03-24T19:21:53.154Z,3.00
2023-03-24T19:24:21.397Z,3.27
2023-03-24T19:26:48.189Z,3.60
2023-03-24T19:29:16.485Z,3.80
2023-03-24T19:31:43.285Z,3.60
2023-03-24T19:34:10.444Z,3.37
2023-03-24T19:36:41.561Z,3.70
2023-03-24T19:39:09.260Z,3.10
2023-03-24T19:41:37.447Z,3.20
2023-03-24T19:44:04.874Z,3.47
2023-03-24T19:46:31.681Z,3.60
2023-03-24T19:48:59.164Z,3.80
2023-03-24T19:51:28.801Z,3.57
2023-03-24T19:53:59.378Z,3.53
2023-03-24T19:56:26.389Z,3.13
2023-03-24T19:58:54.952Z,3.20
2023-03-24T20:01:23.710Z,3.50
2023-03-24T20:03:51.888Z,2.97
2023-03-24T20:06:19.913Z,2.90
2023-03-24T20:08:49.790Z,2.80
2023-03-24T20:11:16.522Z,2.37
2023-03-24T20:13:43.733Z,2.60
2023-03-24T20:16:12.883Z,2.60
2023-03-24T20:18:40.720Z,2.50
2023-03-24T20:21:09.297Z,2.40
2023-03-24T20:23:36.468Z,2.67
2023-03-24T20:26:03.581Z,2.50
2023-03-24T20:28:30.836Z,2.67
2023-03-24T20:31:01.763Z,2.40
2023-03-24T20:33:30.721Z,2.57
2023-03-24T20:35:58.347Z,3.00
2023-03-24T20:38:26.232Z,2.63
2023-03-24T20:41:00.596Z,2.60
2023-03-24T20:43:27.944Z,2.60
2023-03-24T20:45:56.454Z,2.63
2023-03-24T20:48:27.029Z,2.10
2023-03-24T20:50:55.562Z,2.00
2023-03-24T20:53:22.769Z,2.60
2023-03-24T20:55:57.948Z,1.97
2023-03-24T20:58:24.884Z,2.20
2023-03-24T21:00:52.156Z,1.90
2023-03-24T21:03:19.515Z,2.43
2023-03-24T21:05:46.806Z,2.30
2023-03-24T21:08:15.610Z,1.70
2023-03-24T21:10:42.930Z,2.53
2023-03-24T21:13:09.788Z,2.20
2023-03-24T21:15:45.350Z,2.73
2023-03-24T21:18:12.147Z,2.40
2023-03-24T21:20:40.358Z,2.87
2023-03-24T21:23:09.645Z,2.17
2023-03-24T21:25:38.362Z,2.40
2023-03-24T21:28:05.211Z,2.20
2023-03-24T21:30:32.424Z,1.93
2023-03-24T21:33:00.525Z,2.90
2023-03-24T21:35:28.014Z,2.30
2023-03-24T21:37:54.929Z,2.57
2023-03-24T21:40:25.180Z,2.17
2023-03-24T21:42:53.950Z,2.30
2023-03-24T21:45:23.151Z,2.13
2023-03-24T21:47:50.274Z,2.23
2023-03-24T21:50:22.865Z,2.20
2023-03-24T21:52:50.692Z,2.37
2023-03-24T21:55:18.096Z,1.90
2023-03-24T21:57:46.227Z,1.97
2023-03-24T22:00:17.878Z,1.80
2023-03-24T22:02:47.335Z,1.57
2023-03-24T22:05:15.679Z,1.57
2023-03-24T22:07:43.161Z,1.30
2023-03-24T22:10:13.732Z,1.43
2023-03-24T22:12:41.509Z,1.20
2023-03-24T22:15:12.114Z,1.70
2023-03-24T22:17:40.866Z,1.77
2023-03-24T22:20:09.501Z,1.50
2023-03-24T22:22:37.320Z,1.40
2023-03-24T22:25:06.978Z,1.33
2023-03-24T22:27:33.940Z,1.47
2023-03-24T22:30:01.055Z,1.37
2023-03-24T22:32:28.176Z,1.40
2023-03-24T22:34:56.911Z,1.60
2023-03-24T22:37:23.689Z,1.30
2023-03-24T22:39:50.533Z,1.40
2023-03-24T22:42:17.301Z,1.50
2023-03-24T22:44:44.160Z,1.20
2023-03-24T22:47:10.936Z,1.50
2023-03-24T22:49:38.248Z,1.40
2023-03-24T22:52:06.878Z,1.40
2023-03-24T22:54:34.078Z,1.50
2023-03-24T22:57:00.963Z,1.50
2023-03-24T22:59:31.234Z,1.20
2023-03-24T23:02:08.707Z,1.47
2023-03-24T23:04:37.341Z,1.43
2023-03-24T23:07:06.158Z,1.80
2023-03-24T23:09:35.049Z,1.30
2023-03-24T23:12:02.454Z,1.40
2023-03-24T23:14:30.232Z,1.30
2023-03-24T23:16:57.216Z,1.40
2023-03-24T23:19:24.325Z,1.30
2023-03-24T23:21:51.302Z,1.60
2023-03-24T23:24:18.361Z,1.43
2023-03-24T23:26:47.238Z,1.37
2023-03-24T23:29:14.123Z,1.50
2023-03-24T23:31:41.259Z,1.13
2023-03-24T23:34:11.069Z,1.20
2023-03-24T23:36:39.772Z,1.20
2023-03-24T23:39:07.003Z,1.03
2023-03-24T23:41:34.080Z,1.10
2023-03-24T23:44:02.551Z,1.00
2023-03-24T23:46:29.385Z,1.20
2023-03-24T23:48:56.283Z,1.13
2023-03-24T23:51:23.108Z,1.00
2023-03-24T23:53:50.503Z,1.10
2023-03-24T23:56:21.396Z,1.20
2023-03-24T23:58:48.417Z,0.97
